This is the latest recevied weather packets stored in our database for station/object OZ7MKS. If no packets are shown the sender has not sent any weather packets the latest 10 day(s).
| Time | Temp. | Humidity | Pressure | Rain* | Wind** | Luminosity | Snow |
|---|---|---|---|---|---|---|---|
| 1778190004 | 9.44° C | 83% | 1019.7 hPa | 0 mm | - | - | - |
| 1778185503 | 10.56° C | 80% | 1019.3 hPa | 0 mm | - | - | - |
| 1778184004 | 11.11° C | 78% | 1019.3 hPa | 0 mm | - | - | - |
| 1778181004 | 12.22° C | 73% | 1018.8 hPa | 0 mm | - | - | - |
| 1778177104 | 13.33° C | 69% | 1018.2 hPa | 0 mm | - | - | - |
| 1778176804 | 13.33° C | 69% | 1018.2 hPa | 0 mm | - | - | - |
| 1778175303 | 13.89° C | 68% | 1018 hPa | 0 mm | - | - | - |
| 1778173804 | 13.89° C | 66% | 1017.8 hPa | 0 mm | - | - | - |
| 1778169904 | 16.11° C | 63% | 1017.5 hPa | 0 mm | - | - | - |
| 1778167203 | 16.67° C | 59% | 1017.2 hPa | 0 mm | - | - | - |
| 1778166004 | 16.11° C | 60% | 1017.2 hPa | 0 mm | - | - | - |
| 1778164503 | 17.22° C | 58% | 1017.2 hPa | 0 mm | - | - | - |
| 1778162404 | 16.11° C | 57% | 1017.1 hPa | 0 mm | - | - | - |
| 1778160904 | 16.67° C | 57% | 1017.2 hPa | 0 mm | - | - | - |
| 1778159403 | 17.22° C | 58% | 1017.1 hPa | 0 mm | - | - | - |
| 1778157604 | 16.11° C | 57% | 1017.1 hPa | 0 mm | - | - | - |
| 1778157304 | 16.67° C | 56% | 1017.1 hPa | 0 mm | - | - | - |
| 1778156404 | 16.11° C | 56% | 1017.1 hPa | 0 mm | - | - | - |
| 1778151903 | 15.56° C | 59% | 1017.2 hPa | 0 mm | - | - | - |
| 1778149804 | 14.44° C | 58% | 1017.2 hPa | 0 mm | - | - | - |
| 1778148904 | 14.44° C | 57% | 1017.1 hPa | 0 mm | - | - | - |
| 1778148303 | 14.44° C | 57% | 1017.1 hPa | 0 mm | - | - | - |
| 1778148003 | 14.44° C | 55% | 1017 hPa | 0 mm | - | - | - |
| 1778147103 | 14.44° C | 59% | 1016.9 hPa | 0 mm | - | - | - |
| 1778146204 | 14.44° C | 58% | 1016.9 hPa | 0 mm | - | - | - |
* Rain latest hour (hover to see other rain measurements)
** Current wind speed in m/s (hover to see current wind gust speed)